createdAt,value
2022-11-19T00:01:55.583Z,4.43
2022-11-19T00:04:24.985Z,4.07
2022-11-19T00:06:52.935Z,5.50
2022-11-19T00:09:21.611Z,4.80
2022-11-19T00:12:08.781Z,4.40
2022-11-19T00:14:40.441Z,4.17
2022-11-19T00:17:08.476Z,5.40
2022-11-19T00:19:36.551Z,4.80
2022-11-19T00:22:05.030Z,6.40
2022-11-19T00:24:32.850Z,6.33
2022-11-19T00:27:01.941Z,6.13
2022-11-19T00:29:32.203Z,7.73
2022-11-19T00:31:59.844Z,4.83
2022-11-19T00:34:27.422Z,6.67
2022-11-19T00:37:00.540Z,5.90
2022-11-19T00:39:32.379Z,7.80
2022-11-19T00:42:12.004Z,9.60
2022-11-19T00:44:39.992Z,10.30
2022-11-19T00:47:08.946Z,6.33
2022-11-19T00:49:37.677Z,7.40
2022-11-19T00:52:06.139Z,8.00
2022-11-19T00:54:34.628Z,5.93
2022-11-19T00:57:04.030Z,7.20
2022-11-19T00:59:33.701Z,7.50
2022-11-19T01:02:02.882Z,5.60
2022-11-19T01:04:31.102Z,5.40
2022-11-19T01:06:59.413Z,6.80
2022-11-19T01:09:29.371Z,7.90
2022-11-19T01:12:00.052Z,7.17
2022-11-19T01:14:34.851Z,6.60
2022-11-19T01:17:13.408Z,9.23
2022-11-19T01:19:45.433Z,7.60
2022-11-19T01:22:13.593Z,7.30
2022-11-19T01:24:44.403Z,7.83
2022-11-19T01:27:12.013Z,7.50
2022-11-19T01:29:40.956Z,6.57
2022-11-19T01:32:08.814Z,7.70
2022-11-19T01:34:36.402Z,7.33
2022-11-19T01:37:04.495Z,7.50
2022-11-19T01:39:51.413Z,8.00
2022-11-19T01:42:42.130Z,7.33
2022-11-19T01:45:28.669Z,6.07
2022-11-19T01:48:15.361Z,7.90
2022-11-19T01:50:49.352Z,10.00
2022-11-19T01:53:24.358Z,7.97
2022-11-19T01:55:54.591Z,9.10
2022-11-19T01:58:27.699Z,8.43
2022-11-19T02:01:09.407Z,8.97
2022-11-19T02:04:01.995Z,14.27
2022-11-19T02:06:45.218Z,11.33
2022-11-19T02:09:22.462Z,15.87
2022-11-19T02:12:18.120Z,10.57
2022-11-19T02:15:05.494Z,10.33
2022-11-19T02:18:06.280Z,11.23
2022-11-19T02:20:56.613Z,10.00
2022-11-19T02:23:46.116Z,11.03
2022-11-19T02:26:54.346Z,9.30
2022-11-19T02:29:53.170Z,11.60
2022-11-19T02:32:40.937Z,9.87
2022-11-19T02:35:53.106Z,12.37
2022-11-19T02:38:32.178Z,12.70
2022-11-19T02:41:25.933Z,12.70
2022-11-19T02:44:21.369Z,12.10
2022-11-19T02:47:05.942Z,14.17
2022-11-19T02:49:41.127Z,14.10
2022-11-19T02:52:15.020Z,13.27
2022-11-19T02:54:47.150Z,15.10
2022-11-19T02:57:15.978Z,12.87
2022-11-19T03:00:09.032Z,10.83
2022-11-19T03:03:00.144Z,15.07
2022-11-19T03:05:37.229Z,12.20
2022-11-19T03:08:06.126Z,11.77
2022-11-19T03:10:46.988Z,13.20
2022-11-19T03:13:39.169Z,12.50
2022-11-19T03:16:31.282Z,15.73
2022-11-19T03:19:10.415Z,13.70
2022-11-19T03:21:45.196Z,15.37
2022-11-19T03:24:41.270Z,14.77
2022-11-19T03:27:13.550Z,16.00
2022-11-19T03:29:57.844Z,13.70
2022-11-19T03:32:31.022Z,14.10
2022-11-19T03:35:06.064Z,19.07
2022-11-19T03:37:42.715Z,13.17
2022-11-19T03:40:14.001Z,13.97
2022-11-19T03:42:47.766Z,14.93
2022-11-19T03:45:25.852Z,14.23
2022-11-19T03:48:01.775Z,13.67
2022-11-19T03:50:36.498Z,13.90
2022-11-19T03:53:06.723Z,15.77
2022-11-19T03:55:38.937Z,16.93
2022-11-19T03:58:12.057Z,12.77
2022-11-19T04:00:40.756Z,13.50
2022-11-19T04:03:08.521Z,16.00
2022-11-19T04:05:36.126Z,13.50
2022-11-19T04:08:05.892Z,16.53
2022-11-19T04:10:33.858Z,17.00
2022-11-19T04:13:02.287Z,15.23
2022-11-19T04:15:42.427Z,15.40
2022-11-19T04:18:19.985Z,13.47
2022-11-19T04:20:47.888Z,14.17
2022-11-19T04:23:19.335Z,13.10
2022-11-19T04:25:48.034Z,15.90
2022-11-19T04:28:35.171Z,10.30
2022-11-19T04:31:04.754Z,13.90
2022-11-19T04:33:35.073Z,8.77
2022-11-19T04:36:03.112Z,5.80
2022-11-19T04:39:03.689Z,6.37
2022-11-19T04:41:33.218Z,12.63
2022-11-19T04:44:01.341Z,4.67
2022-11-19T04:46:29.006Z,5.07
2022-11-19T04:49:01.904Z,5.60
2022-11-19T04:51:33.301Z,4.13
2022-11-19T04:54:02.350Z,4.60
2022-11-19T04:56:31.138Z,6.23
2022-11-19T04:58:59.088Z,7.20
2022-11-19T05:01:31.649Z,4.67
2022-11-19T05:03:59.574Z,5.60
2022-11-19T05:06:27.733Z,6.37
2022-11-19T05:09:05.321Z,7.67
2022-11-19T05:11:35.388Z,7.73
2022-11-19T05:14:03.683Z,7.10
2022-11-19T05:16:32.032Z,6.90
2022-11-19T05:19:00.168Z,8.67
2022-11-19T05:21:31.465Z,7.57
2022-11-19T05:23:59.417Z,5.13
2022-11-19T05:26:29.303Z,7.70
2022-11-19T05:28:59.012Z,7.80
2022-11-19T05:31:26.742Z,6.90
2022-11-19T05:34:08.762Z,7.20
2022-11-19T05:36:41.735Z,7.93
2022-11-19T05:39:15.164Z,10.10
2022-11-19T05:41:56.030Z,6.87
2022-11-19T05:44:29.409Z,8.13
2022-11-19T05:47:01.609Z,7.00
2022-11-19T05:49:29.500Z,8.60
2022-11-19T05:51:58.493Z,7.30
2022-11-19T05:54:30.719Z,8.23
2022-11-19T05:57:28.843Z,7.00
2022-11-19T05:59:58.556Z,9.27
2022-11-19T06:02:29.534Z,7.07
2022-11-19T06:05:15.327Z,13.90
2022-11-19T06:07:45.377Z,8.63
2022-11-19T06:10:20.005Z,6.47
2022-11-19T06:12:50.409Z,10.57
2022-11-19T06:15:25.638Z,8.00
2022-11-19T06:18:02.369Z,9.70
2022-11-19T06:20:38.121Z,8.90
2022-11-19T06:23:08.161Z,10.80
2022-11-19T06:25:37.508Z,9.37
2022-11-19T06:28:15.475Z,7.03
2022-11-19T06:30:45.220Z,8.33
2022-11-19T06:33:13.504Z,10.07
2022-11-19T06:35:41.642Z,8.83
2022-11-19T06:38:10.904Z,10.13
2022-11-19T06:40:39.084Z,10.17
2022-11-19T06:43:14.908Z,10.60
2022-11-19T06:45:44.723Z,10.00
2022-11-19T06:48:14.212Z,9.00
2022-11-19T06:50:51.631Z,11.30
2022-11-19T06:53:21.496Z,9.87
2022-11-19T06:56:10.000Z,8.80
2022-11-19T06:58:40.983Z,10.23
2022-11-19T07:01:10.795Z,11.30
2022-11-19T07:03:39.749Z,10.77
2022-11-19T07:06:09.749Z,12.27
2022-11-19T07:08:39.654Z,8.00
2022-11-19T07:11:21.811Z,11.37
2022-11-19T07:14:01.070Z,7.67
2022-11-19T07:16:37.368Z,9.70
2022-11-19T07:19:15.792Z,10.17
2022-11-19T07:21:44.031Z,9.27
2022-11-19T07:24:19.595Z,9.13
2022-11-19T07:26:54.804Z,7.43
2022-11-19T07:29:23.301Z,10.87
2022-11-19T07:32:01.692Z,9.40
2022-11-19T07:34:29.693Z,9.20
2022-11-19T07:37:00.219Z,9.60
2022-11-19T07:39:28.200Z,9.17
2022-11-19T07:42:13.773Z,10.77
2022-11-19T07:44:42.680Z,8.60
2022-11-19T07:47:14.460Z,13.57
2022-11-19T07:49:42.231Z,8.27
2022-11-19T07:52:10.823Z,10.10
2022-11-19T07:54:38.940Z,8.53
2022-11-19T07:57:07.662Z,9.47
2022-11-19T07:59:35.790Z,10.57
2022-11-19T08:02:03.947Z,9.57
2022-11-19T08:04:39.903Z,8.23
2022-11-19T08:07:08.482Z,9.60
2022-11-19T08:09:43.354Z,9.70
2022-11-19T08:12:11.445Z,9.13
2022-11-19T08:14:39.402Z,8.13
2022-11-19T08:17:25.051Z,6.60
2022-11-19T08:19:56.945Z,8.53
2022-11-19T08:22:25.424Z,7.17
2022-11-19T08:24:53.664Z,9.00
2022-11-19T08:27:21.799Z,6.30
2022-11-19T08:29:58.299Z,7.67
2022-11-19T08:32:27.326Z,10.20
2022-11-19T08:35:00.541Z,6.50
2022-11-19T08:37:30.152Z,9.13
2022-11-19T08:40:00.522Z,7.67
2022-11-19T08:42:45.888Z,8.83
2022-11-19T08:45:18.116Z,5.87
2022-11-19T08:47:49.265Z,6.73
2022-11-19T08:50:26.145Z,10.20
2022-11-19T08:52:55.855Z,7.07
2022-11-19T08:58:47.929Z,6.60
2022-11-19T09:01:20.946Z,6.47
2022-11-19T09:03:48.850Z,6.83
2022-11-19T09:09:13.119Z,4.43
2022-11-19T09:11:43.082Z,6.37
2022-11-19T09:14:27.561Z,4.67
2022-11-19T09:16:55.344Z,3.83
2022-11-19T09:19:23.540Z,5.10
2022-11-19T09:21:55.374Z,4.23
2022-11-19T09:24:26.457Z,3.87
2022-11-19T09:26:57.179Z,4.40
2022-11-19T09:29:33.891Z,3.33
2022-11-19T09:32:02.022Z,4.40
2022-11-19T09:34:34.841Z,4.17
2022-11-19T09:37:04.219Z,5.17
2022-11-19T09:39:32.428Z,3.43
2022-11-19T09:42:14.711Z,4.00
2022-11-19T09:45:02.196Z,3.97
2022-11-19T09:47:41.220Z,5.17
2022-11-19T09:50:16.936Z,4.00
2022-11-19T09:52:50.073Z,4.97
2022-11-19T09:55:21.266Z,3.00
2022-11-19T09:57:52.978Z,5.13
2022-11-19T10:00:24.272Z,5.13
2022-11-19T10:02:53.478Z,5.20
2022-11-19T10:05:30.928Z,5.27
2022-11-19T10:08:16.016Z,6.30
2022-11-19T10:10:52.095Z,5.87
2022-11-19T10:13:40.095Z,5.67
2022-11-19T10:16:24.437Z,5.80
2022-11-19T10:18:58.863Z,6.33
2022-11-19T10:21:34.760Z,4.50
2022-11-19T10:24:17.797Z,6.27
2022-11-19T10:26:56.394Z,5.07
2022-11-19T10:29:28.192Z,5.23
2022-11-19T10:32:17.429Z,5.57
2022-11-19T10:34:47.003Z,5.33
2022-11-19T10:37:17.710Z,6.73
2022-11-19T10:39:52.646Z,5.07
2022-11-19T10:42:23.854Z,6.90
2022-11-19T10:44:55.784Z,12.83
2022-11-19T10:47:31.331Z,5.90
2022-11-19T10:49:59.119Z,5.50
2022-11-19T10:52:31.569Z,6.13
2022-11-19T10:55:06.299Z,5.20
2022-11-19T10:57:34.650Z,9.37
2022-11-19T11:00:03.880Z,5.77
2022-11-19T11:02:40.265Z,4.60
2022-11-19T11:05:13.500Z,7.23
2022-11-19T11:07:53.496Z,5.70
2022-11-19T11:10:33.757Z,7.33
2022-11-19T11:13:27.181Z,5.17
2022-11-19T11:15:55.091Z,7.80
2022-11-19T11:18:30.437Z,7.50
2022-11-19T11:20:59.208Z,7.80
2022-11-19T11:23:29.397Z,6.80
2022-11-19T11:26:04.619Z,4.73
2022-11-19T11:28:35.029Z,7.23
2022-11-19T11:31:04.735Z,5.00
2022-11-19T11:33:40.780Z,7.77
2022-11-19T11:36:11.796Z,6.40
2022-11-19T11:38:43.066Z,3.50
2022-11-19T11:44:05.740Z,5.70
2022-11-19T11:46:39.717Z,5.77
2022-11-19T11:49:13.000Z,6.10
2022-11-19T11:51:40.875Z,6.30
2022-11-19T11:54:18.660Z,6.63
2022-11-19T11:56:48.661Z,5.87
2022-11-19T11:59:28.000Z,7.57
2022-11-19T12:01:57.910Z,11.30
2022-11-19T12:04:25.823Z,6.27
2022-11-19T12:07:06.871Z,6.73
2022-11-19T12:09:41.672Z,5.00
2022-11-19T12:12:19.484Z,5.67
2022-11-19T12:14:57.861Z,5.63
2022-11-19T12:17:41.529Z,7.23
2022-11-19T12:20:28.089Z,7.17
2022-11-19T12:23:14.498Z,7.00
2022-11-19T12:25:50.547Z,6.93
2022-11-19T12:28:42.997Z,8.23
2022-11-19T12:31:29.656Z,8.23
2022-11-19T12:34:22.411Z,6.30
2022-11-19T12:37:01.275Z,10.50
2022-11-19T12:39:43.337Z,8.37
2022-11-19T12:42:34.166Z,6.50
2022-11-19T12:45:14.603Z,9.43
2022-11-19T12:48:13.182Z,7.10
2022-11-19T12:50:50.925Z,10.70
2022-11-19T12:53:52.415Z,8.60
2022-11-19T12:56:37.293Z,8.60
2022-11-19T12:59:21.821Z,10.03
2022-11-19T13:01:54.579Z,11.20
2022-11-19T13:04:29.178Z,7.90
2022-11-19T13:07:02.649Z,8.93
2022-11-19T13:09:40.482Z,12.73
2022-11-19T13:12:14.598Z,7.93
2022-11-19T13:14:49.543Z,8.67
2022-11-19T13:17:27.651Z,10.03
2022-11-19T13:19:59.611Z,10.30
2022-11-19T13:22:32.483Z,8.67
2022-11-19T13:25:08.766Z,7.77
2022-11-19T13:27:37.996Z,8.63
2022-11-19T13:30:07.903Z,11.40
2022-11-19T13:32:45.352Z,10.47
2022-11-19T13:35:21.388Z,8.40
2022-11-19T13:37:58.879Z,10.87
2022-11-19T13:40:33.404Z,7.87
2022-11-19T13:43:34.671Z,9.50
2022-11-19T13:46:16.421Z,7.57
2022-11-19T13:48:49.556Z,12.87
2022-11-19T13:51:33.282Z,9.80
2022-11-19T13:54:05.704Z,13.03
2022-11-19T13:56:43.637Z,9.73
2022-11-19T13:59:27.098Z,10.30
2022-11-19T14:02:26.989Z,11.47
2022-11-19T14:05:25.315Z,10.17
2022-11-19T14:08:08.666Z,8.70
2022-11-19T14:10:41.374Z,10.50
2022-11-19T14:13:30.122Z,9.10
2022-11-19T14:16:30.103Z,11.10
2022-11-19T14:19:22.566Z,8.13
2022-11-19T14:22:11.711Z,11.00
2022-11-19T14:25:14.518Z,11.30
2022-11-19T14:27:42.564Z,14.10
2022-11-19T14:30:20.525Z,9.10
2022-11-19T14:32:54.070Z,15.87
2022-11-19T14:35:30.634Z,9.10
2022-11-19T14:38:18.877Z,11.80
2022-11-19T14:40:47.390Z,9.30
2022-11-19T14:43:44.588Z,13.00
2022-11-19T14:46:25.388Z,10.63
2022-11-19T14:49:03.241Z,11.13
2022-11-19T14:51:37.053Z,10.00
2022-11-19T14:54:19.111Z,14.17
2022-11-19T14:56:49.492Z,10.50
2022-11-19T14:59:23.537Z,12.10
2022-11-19T15:01:58.987Z,12.67
2022-11-19T15:04:34.562Z,13.57
2022-11-19T15:07:03.686Z,12.00
2022-11-19T15:10:08.328Z,9.67
2022-11-19T15:12:50.170Z,11.33
2022-11-19T15:15:36.166Z,14.17
2022-11-19T15:18:21.101Z,11.00
2022-11-19T15:21:06.715Z,11.30
2022-11-19T15:23:40.490Z,13.53
2022-11-19T15:26:22.269Z,14.67
2022-11-19T15:29:06.911Z,10.87
2022-11-19T15:31:52.932Z,10.63
2022-11-19T15:35:09.350Z,11.87
2022-11-19T15:37:48.617Z,13.83
2022-11-19T15:40:23.573Z,10.50
2022-11-19T15:42:57.933Z,15.27
2022-11-19T15:45:29.069Z,14.77
2022-11-19T15:48:05.235Z,13.63
2022-11-19T15:50:33.463Z,15.20
2022-11-19T15:53:03.568Z,16.23
2022-11-19T15:55:33.119Z,17.20
2022-11-19T15:58:11.909Z,17.30
2022-11-19T16:00:53.716Z,17.23
2022-11-19T16:03:22.581Z,17.60
2022-11-19T16:06:03.581Z,15.10
2022-11-19T16:08:31.944Z,13.73
2022-11-19T16:11:20.571Z,16.53
2022-11-19T16:14:09.906Z,13.73
2022-11-19T16:16:57.301Z,12.10
2022-11-19T16:19:25.767Z,12.30
2022-11-19T16:22:02.365Z,14.60
2022-11-19T16:24:49.894Z,11.50
2022-11-19T16:27:21.776Z,12.87
2022-11-19T16:29:49.588Z,12.50
2022-11-19T16:32:21.231Z,12.63
2022-11-19T16:34:49.186Z,11.97
2022-11-19T16:37:20.151Z,11.20
2022-11-19T16:39:52.046Z,15.47
2022-11-19T16:42:26.330Z,12.20
2022-11-19T16:44:56.862Z,15.80
2022-11-19T16:47:32.017Z,14.47
2022-11-19T16:50:03.480Z,10.43
2022-11-19T16:52:44.544Z,13.27
2022-11-19T16:55:46.196Z,13.70
2022-11-19T16:58:17.379Z,14.47
2022-11-19T17:00:49.686Z,13.90
2022-11-19T17:03:31.927Z,14.43
2022-11-19T17:06:02.560Z,13.63
2022-11-19T17:08:33.974Z,11.50
2022-11-19T17:11:35.849Z,16.90
2022-11-19T17:14:14.511Z,12.67
2022-11-19T17:16:49.278Z,16.13
2022-11-19T17:19:26.097Z,13.73
2022-11-19T17:22:00.297Z,9.73
2022-11-19T17:24:32.950Z,12.33
2022-11-19T17:27:00.828Z,16.03
2022-11-19T17:29:28.759Z,13.17
2022-11-19T17:32:01.395Z,11.33
2022-11-19T17:34:41.521Z,11.17
2022-11-19T17:37:11.434Z,12.13
2022-11-19T17:39:41.426Z,16.23
2022-11-19T17:42:28.079Z,11.93
2022-11-19T17:44:56.596Z,12.17
2022-11-19T17:47:24.719Z,18.20
2022-11-19T17:49:56.368Z,15.63
2022-11-19T17:52:25.924Z,12.43
2022-11-19T17:54:56.220Z,15.07
2022-11-19T17:57:24.682Z,13.77
2022-11-19T17:59:53.316Z,15.00
2022-11-19T18:02:21.712Z,13.90
2022-11-19T18:04:49.681Z,12.03
2022-11-19T18:07:18.759Z,16.43
2022-11-19T18:09:46.521Z,14.90
2022-11-19T18:12:19.844Z,13.50
2022-11-19T18:14:48.571Z,10.20
2022-11-19T18:17:16.593Z,13.97
2022-11-19T18:19:44.391Z,12.47
2022-11-19T18:22:18.337Z,13.17
2022-11-19T18:24:51.223Z,13.37
2022-11-19T18:27:18.906Z,13.73
2022-11-19T18:29:46.772Z,12.90
2022-11-19T18:32:16.791Z,12.63
2022-11-19T18:34:45.913Z,11.60
2022-11-19T18:37:13.940Z,17.53
2022-11-19T18:39:42.752Z,11.03
2022-11-19T18:42:12.951Z,11.50
2022-11-19T18:44:41.877Z,13.83
2022-11-19T18:47:13.665Z,12.60
2022-11-19T18:49:43.111Z,15.50
2022-11-19T18:52:14.478Z,11.40
2022-11-19T18:54:44.719Z,12.83
2022-11-19T18:57:14.102Z,14.67
2022-11-19T18:59:41.727Z,14.43
2022-11-19T19:02:10.680Z,15.80
2022-11-19T19:04:38.518Z,10.53
2022-11-19T19:07:06.200Z,15.27
2022-11-19T19:09:34.782Z,18.20
2022-11-19T19:12:20.649Z,11.60
2022-11-19T19:14:51.977Z,14.10
2022-11-19T19:17:22.118Z,12.50
2022-11-19T19:19:50.171Z,8.77
2022-11-19T19:22:18.938Z,11.03
2022-11-19T19:24:46.935Z,13.53
2022-11-19T19:27:14.773Z,12.17
2022-11-19T19:29:42.970Z,12.30
2022-11-19T19:32:14.634Z,12.33
2022-11-19T19:34:47.053Z,14.50
2022-11-19T19:37:15.687Z,12.83
2022-11-19T19:39:46.533Z,12.93
2022-11-19T19:42:14.219Z,13.60
2022-11-19T19:44:41.841Z,16.30
2022-11-19T19:47:09.537Z,10.77
2022-11-19T19:49:39.321Z,19.57
2022-11-19T19:52:06.978Z,13.60
2022-11-19T19:54:34.842Z,13.37
2022-11-19T19:57:02.504Z,13.17
2022-11-19T19:59:37.644Z,12.13
2022-11-19T20:02:05.610Z,15.30
2022-11-19T20:04:34.781Z,17.83
2022-11-19T20:07:03.799Z,13.00
2022-11-19T20:09:31.624Z,16.47
2022-11-19T20:12:00.071Z,15.00
2022-11-19T20:14:27.734Z,13.40
2022-11-19T20:16:55.349Z,12.00
2022-11-19T20:19:23.235Z,11.40
2022-11-19T20:21:52.193Z,14.90
2022-11-19T20:24:22.716Z,15.13
2022-11-19T20:26:51.453Z,14.33
2022-11-19T20:29:21.851Z,11.13
2022-11-19T20:31:51.611Z,18.50
2022-11-19T20:34:19.455Z,15.03
2022-11-19T20:36:47.635Z,14.13
2022-11-19T20:39:15.263Z,11.40
2022-11-19T20:42:02.125Z,14.80
2022-11-19T20:44:30.430Z,19.27
2022-11-19T20:46:59.500Z,13.73
2022-11-19T20:49:29.296Z,15.13
2022-11-19T20:51:57.894Z,12.83
2022-11-19T20:54:26.894Z,16.63
2022-11-19T20:56:57.533Z,14.80
2022-11-19T20:59:26.358Z,16.80
2022-11-19T21:01:55.456Z,14.13
2022-11-19T21:04:23.940Z,15.63
2022-11-19T21:06:53.853Z,14.57
2022-11-19T21:09:22.113Z,14.30
2022-11-19T21:11:49.908Z,15.33
2022-11-19T21:14:19.055Z,13.70
2022-11-19T21:16:46.957Z,12.03
2022-11-19T21:19:15.535Z,16.47
2022-11-19T21:21:45.383Z,12.37
2022-11-19T21:24:13.693Z,11.33
2022-11-19T21:26:41.388Z,12.73
2022-11-19T21:29:08.940Z,13.67
2022-11-19T21:31:42.188Z,16.13
2022-11-19T21:34:12.101Z,15.50
2022-11-19T21:36:41.711Z,13.90
2022-11-19T21:39:10.459Z,19.13
2022-11-19T21:41:38.881Z,13.17
2022-11-19T21:44:07.402Z,14.37
2022-11-19T21:46:35.989Z,13.83
2022-11-19T21:49:06.454Z,12.50
2022-11-19T21:51:34.571Z,13.33
2022-11-19T21:54:02.209Z,14.30
2022-11-19T21:56:33.887Z,16.23
2022-11-19T21:59:09.131Z,12.17
2022-11-19T22:01:37.179Z,13.17
2022-11-19T22:04:07.004Z,15.20
2022-11-19T22:06:34.922Z,12.10
2022-11-19T22:09:02.575Z,15.33
2022-11-19T22:11:30.639Z,15.97
2022-11-19T22:14:02.938Z,13.47
2022-11-19T22:16:31.908Z,16.80
2022-11-19T22:19:02.731Z,14.20
2022-11-19T22:21:32.995Z,16.87
2022-11-19T22:24:01.508Z,13.60
2022-11-19T22:26:29.399Z,14.37
2022-11-19T22:28:58.655Z,15.50
2022-11-19T22:31:27.008Z,17.00
2022-11-19T22:33:58.404Z,14.23
2022-11-19T22:36:29.013Z,12.57
2022-11-19T22:39:01.280Z,13.60
2022-11-19T22:41:29.549Z,16.70
2022-11-19T22:43:58.863Z,15.57
2022-11-19T22:46:30.265Z,18.20
2022-11-19T22:48:58.665Z,16.47
2022-11-19T22:51:27.514Z,14.73
2022-11-19T22:53:56.699Z,14.37
2022-11-19T22:56:27.220Z,14.23
2022-11-19T22:58:55.469Z,17.53
2022-11-19T23:01:25.239Z,12.20
2022-11-19T23:03:53.539Z,15.50
2022-11-19T23:06:21.586Z,13.00
2022-11-19T23:08:50.020Z,13.10
2022-11-19T23:11:41.143Z,15.00
2022-11-19T23:14:14.602Z,14.43
2022-11-19T23:16:42.954Z,14.70
2022-11-19T23:19:11.845Z,14.60
2022-11-19T23:21:40.119Z,17.30
2022-11-19T23:24:09.453Z,16.40
2022-11-19T23:26:37.955Z,13.50
2022-11-19T23:29:06.280Z,16.17
2022-11-19T23:31:40.205Z,17.67
2022-11-19T23:34:14.270Z,13.37
2022-11-19T23:36:43.440Z,13.73
2022-11-19T23:39:17.076Z,13.17
2022-11-19T23:41:45.888Z,14.20
2022-11-19T23:44:16.276Z,14.23
2022-11-19T23:46:45.547Z,18.03
2022-11-19T23:49:14.182Z,14.33
2022-11-19T23:54:41.305Z,16.43
2022-11-19T23:57:09.324Z,15.33
